createdAt,value
2023-03-15T00:02:58.527Z,100434.88
2023-03-15T00:08:04.387Z,100433.63
2023-03-15T00:13:07.508Z,100427.88
2023-03-15T00:18:10.922Z,100428.84
2023-03-15T00:23:14.886Z,100429.47
2023-03-15T00:28:36.978Z,100440.41
2023-03-15T00:33:39.985Z,100434.63
2023-03-15T00:39:01.495Z,100424.63
2023-03-15T00:44:24.824Z,100426.06
2023-03-15T00:49:27.788Z,100427.16
2023-03-15T00:54:33.654Z,100425.59
2023-03-15T00:59:36.708Z,100422.16
2023-03-15T01:04:40.133Z,100429.19
2023-03-15T01:09:45.841Z,100415.91
2023-03-15T01:14:50.719Z,100422.47
2023-03-15T01:19:53.745Z,100425.31
2023-03-15T01:24:56.866Z,100432.50
2023-03-15T01:29:59.882Z,100435.16
2023-03-15T01:35:02.943Z,100438.56
2023-03-15T01:40:09.288Z,100454.50
2023-03-15T01:45:50.133Z,100455.88
2023-03-15T01:50:55.466Z,100459.03
2023-03-15T01:56:00.141Z,100452.47
2023-03-15T02:01:10.720Z,100455.13
2023-03-15T02:06:20.315Z,100461.19
2023-03-15T02:11:42.775Z,100458.53
2023-03-15T02:17:04.580Z,100455.88
2023-03-15T02:22:23.516Z,100458.88
2023-03-15T02:27:35.830Z,100456.22
2023-03-15T02:32:39.219Z,100454.34
2023-03-15T02:37:46.097Z,100468.22
2023-03-15T02:42:54.982Z,100464.34
2023-03-15T02:47:58.509Z,100464.03
2023-03-15T02:53:03.324Z,100469.16
2023-03-15T02:58:24.820Z,100466.66
2023-03-15T03:03:27.842Z,100469.16
2023-03-15T03:08:31.077Z,100468.41
2023-03-15T03:13:34.094Z,100466.06
2023-03-15T03:18:40.074Z,100467.78
2023-03-15T03:23:46.388Z,100464.53
2023-03-15T03:28:49.872Z,100465.16
2023-03-15T03:33:53.271Z,100455.63
2023-03-15T03:38:57.315Z,100465.16
2023-03-15T03:44:00.843Z,100466.06
2023-03-15T03:49:03.921Z,100473.53
2023-03-15T03:54:07.609Z,100470.09
2023-03-15T03:59:11.065Z,100482.91
2023-03-15T04:04:26.687Z,100478.97
2023-03-15T04:09:30.477Z,100488.94
2023-03-15T04:14:33.725Z,100490.59
2023-03-15T04:19:38.022Z,100489.00
2023-03-15T04:24:42.635Z,100499.25
2023-03-15T04:29:59.664Z,100508.78
2023-03-15T04:35:36.534Z,100510.69
2023-03-15T04:40:56.574Z,100521.72
2023-03-15T04:46:34.133Z,100527.56
2023-03-15T04:51:57.708Z,100530.41
2023-03-15T04:57:26.805Z,100531.56
2023-03-15T05:02:57.426Z,100544.28
2023-03-15T05:08:21.156Z,100532.38
2023-03-15T05:13:42.131Z,100539.59
2023-03-15T05:19:04.104Z,100548.13
2023-03-15T05:24:27.321Z,100542.28
2023-03-15T05:29:36.095Z,100543.63
2023-03-15T05:34:44.969Z,100545.66
2023-03-15T05:40:08.406Z,100536.91
2023-03-15T05:45:34.472Z,100532.47
2023-03-15T05:51:00.303Z,100536.69
2023-03-15T05:56:21.908Z,100534.59
2023-03-15T06:01:43.218Z,100524.50
2023-03-15T06:06:54.076Z,100539.03
2023-03-15T06:11:59.205Z,100527.22
2023-03-15T06:17:02.575Z,100532.09
2023-03-15T06:22:06.636Z,100536.72
2023-03-15T06:27:32.922Z,100536.50
2023-03-15T06:32:36.902Z,100527.13
2023-03-15T06:37:40.239Z,100528.72
2023-03-15T06:42:43.184Z,100536.66
2023-03-15T06:47:48.821Z,100549.59
2023-03-15T06:52:53.262Z,100536.84
2023-03-15T06:57:56.642Z,100524.00
2023-03-15T07:02:59.681Z,100529.88
2023-03-15T07:08:02.582Z,100530.47
2023-03-15T07:13:07.099Z,100533.91
2023-03-15T07:18:09.988Z,100539.63
2023-03-15T07:23:13.140Z,100544.47
2023-03-15T07:28:16.116Z,100534.16
2023-03-15T07:33:38.048Z,100544.13
2023-03-15T07:38:43.186Z,100533.31
2023-03-15T07:43:46.282Z,100545.50
2023-03-15T07:48:54.422Z,100535.69
2023-03-15T07:53:57.655Z,100528.38
2023-03-15T07:59:00.719Z,100527.47
2023-03-15T08:04:04.276Z,100509.06
2023-03-15T08:09:07.128Z,100528.09
2023-03-15T08:14:10.042Z,100524.41
2023-03-15T08:19:12.953Z,100527.59
2023-03-15T08:24:15.891Z,100516.34
2023-03-15T08:29:18.913Z,100523.16
2023-03-15T08:34:22.062Z,100515.00
2023-03-15T08:39:25.054Z,100511.19
2023-03-15T08:44:28.116Z,100499.41
2023-03-15T08:49:31.478Z,100505.19
2023-03-15T08:54:34.749Z,100505.53
2023-03-15T08:59:37.510Z,100507.69
2023-03-15T09:04:40.448Z,100501.91
2023-03-15T09:09:48.310Z,100486.63
2023-03-15T09:14:51.136Z,100486.47
2023-03-15T09:19:54.129Z,100479.97
2023-03-15T09:24:57.059Z,100465.66
2023-03-15T09:30:00.237Z,100483.97
2023-03-15T09:35:08.918Z,100493.31
2023-03-15T09:40:31.042Z,100474.91
2023-03-15T09:46:07.607Z,100454.03
2023-03-15T09:51:27.761Z,100453.44
2023-03-15T09:57:03.805Z,100444.38
2023-03-15T10:02:27.522Z,100434.53
2023-03-15T10:07:31.368Z,100445.94
2023-03-15T10:12:40.991Z,100445.81
2023-03-15T10:18:07.120Z,100427.44
2023-03-15T10:23:23.831Z,100416.66
2023-03-15T10:28:34.821Z,100407.94
2023-03-15T10:33:41.836Z,100411.94
2023-03-15T10:38:47.983Z,100406.31
2023-03-15T10:44:05.184Z,100408.84
2023-03-15T10:49:12.221Z,100404.53
2023-03-15T10:54:20.573Z,100403.84
2023-03-15T11:00:17.598Z,100403.16
2023-03-15T11:05:20.765Z,100410.47
2023-03-15T11:10:43.113Z,100413.28
2023-03-15T11:16:04.413Z,100399.41
2023-03-15T11:21:12.696Z,100398.56
2023-03-15T11:26:32.169Z,100401.78
2023-03-15T11:31:36.721Z,100404.50
2023-03-15T11:36:41.681Z,100402.94
2023-03-15T11:41:53.077Z,100400.25
2023-03-15T11:47:14.026Z,100383.19
2023-03-15T11:52:18.422Z,100381.75
2023-03-15T11:57:46.258Z,100389.78
2023-03-15T12:02:58.198Z,100370.94
2023-03-15T12:08:16.931Z,100371.78
2023-03-15T12:13:24.367Z,100362.53
2023-03-15T12:18:33.839Z,100364.06
2023-03-15T12:23:43.684Z,100354.34
2023-03-15T12:29:01.479Z,100368.06
2023-03-15T12:34:05.918Z,100359.72
2023-03-15T12:39:17.792Z,100365.72
2023-03-15T12:44:32.350Z,100364.75
2023-03-15T12:49:46.313Z,100352.97
2023-03-15T12:55:00.842Z,100355.53
2023-03-15T13:00:15.972Z,100343.97
2023-03-15T13:05:21.156Z,100332.00
2023-03-15T13:10:36.828Z,100325.41
2023-03-15T13:16:06.029Z,100329.41
2023-03-15T13:21:24.347Z,100323.53
2023-03-15T13:26:35.007Z,100341.69
2023-03-15T13:31:38.190Z,100341.50
2023-03-15T13:36:46.063Z,100343.97
2023-03-15T13:41:50.127Z,100336.72
2023-03-15T13:46:53.808Z,100327.16
2023-03-15T13:52:15.139Z,100336.84
2023-03-15T13:57:22.225Z,100317.13
2023-03-15T14:02:45.728Z,100320.81
2023-03-15T14:07:50.288Z,100317.78
2023-03-15T14:12:54.687Z,100309.69
2023-03-15T14:18:04.181Z,100309.16
2023-03-15T14:23:11.862Z,100315.56
2023-03-15T14:28:16.803Z,100321.47
2023-03-15T14:33:38.740Z,100323.81
2023-03-15T14:38:51.182Z,100319.06
2023-03-15T14:43:54.428Z,100307.34
2023-03-15T14:48:57.853Z,100306.34
2023-03-15T14:54:01.309Z,100306.09
2023-03-15T14:59:10.488Z,100308.31
2023-03-15T15:04:14.381Z,100310.50
2023-03-15T15:09:22.092Z,100303.34
2023-03-15T15:14:25.037Z,100305.84
2023-03-15T15:19:47.114Z,100323.44
2023-03-15T15:24:51.407Z,100308.88
2023-03-15T15:29:54.271Z,100318.09
2023-03-15T15:34:56.984Z,100315.28
2023-03-15T15:40:00.041Z,100311.63
2023-03-15T15:45:03.002Z,100317.03
2023-03-15T15:50:07.033Z,100331.53
2023-03-15T15:55:26.102Z,100332.84
2023-03-15T16:00:30.233Z,100328.78
2023-03-15T16:05:35.322Z,100331.22
2023-03-15T16:10:38.871Z,100330.56
2023-03-15T16:15:41.695Z,100329.97
2023-03-15T16:20:44.702Z,100324.19
2023-03-15T16:25:54.285Z,100320.56
2023-03-15T16:30:57.141Z,100323.00
2023-03-15T16:36:01.803Z,100318.53
2023-03-15T16:41:04.854Z,100301.47
2023-03-15T16:46:14.407Z,100303.38
2023-03-15T16:51:17.638Z,100309.44
2023-03-15T16:56:20.854Z,100288.75
2023-03-15T17:01:26.122Z,100293.34
2023-03-15T17:06:29.871Z,100290.13
2023-03-15T17:11:33.245Z,100276.44
2023-03-15T17:16:36.352Z,100286.19
2023-03-15T17:21:39.837Z,100285.50
2023-03-15T17:26:45.843Z,100279.44
2023-03-15T17:31:49.014Z,100280.16
2023-03-15T17:36:51.951Z,100282.41
2023-03-15T17:41:55.182Z,100269.13
2023-03-15T17:46:59.191Z,100269.03
2023-03-15T17:52:02.600Z,100255.69
2023-03-15T17:57:05.493Z,100260.25
2023-03-15T18:02:16.170Z,100264.13
2023-03-15T18:07:19.008Z,100259.22
2023-03-15T18:12:22.904Z,100239.66
2023-03-15T18:17:26.257Z,100244.03
2023-03-15T18:22:29.461Z,100223.97
2023-03-15T18:27:33.162Z,100230.84
2023-03-15T18:32:36.172Z,100230.56
2023-03-15T18:37:58.159Z,100219.72
2023-03-15T18:43:01.728Z,100196.31
2023-03-15T18:48:04.702Z,100208.91
2023-03-15T18:53:07.701Z,100189.16
2023-03-15T18:58:13.282Z,100181.22
2023-03-15T19:03:16.167Z,100188.66
2023-03-15T19:08:19.132Z,100199.31
2023-03-15T19:13:22.516Z,100198.56
2023-03-15T19:18:26.268Z,100190.97
2023-03-15T19:23:29.218Z,100182.47
2023-03-15T19:28:32.188Z,100182.47
2023-03-15T19:33:35.963Z,100180.22
2023-03-15T19:38:39.083Z,100171.81
2023-03-15T19:43:43.698Z,100160.75
2023-03-15T19:49:05.426Z,100161.44
2023-03-15T19:54:08.422Z,100150.84
2023-03-15T19:59:11.516Z,100151.91
2023-03-15T20:04:14.517Z,100141.22
2023-03-15T20:09:17.484Z,100129.59
2023-03-15T20:14:21.117Z,100132.16
2023-03-15T20:19:24.121Z,100114.94
2023-03-15T20:24:27.053Z,100116.91
2023-03-15T20:29:31.871Z,100104.31
2023-03-15T20:34:34.863Z,100111.91
2023-03-15T20:39:37.916Z,100095.75
2023-03-15T20:44:42.430Z,100094.69
2023-03-15T20:49:45.360Z,100105.13
2023-03-15T20:54:48.327Z,100092.63
2023-03-15T20:59:51.554Z,100089.47
2023-03-15T21:04:54.669Z,100090.53
2023-03-15T21:10:17.023Z,100076.13
2023-03-15T21:15:20.688Z,100070.38
2023-03-15T21:20:23.975Z,100071.09
2023-03-15T21:25:27.358Z,100065.66
2023-03-15T21:30:30.937Z,100062.78
2023-03-15T21:35:35.028Z,100066.88
2023-03-15T21:40:38.170Z,100058.44
2023-03-15T21:45:42.368Z,100054.31
2023-03-15T21:50:45.264Z,100056.47
2023-03-15T21:55:48.074Z,100051.47
2023-03-15T22:00:58.250Z,100047.06
2023-03-15T22:06:01.235Z,100041.84
2023-03-15T22:11:23.152Z,100046.81
2023-03-15T22:16:26.363Z,100033.84
2023-03-15T22:21:32.065Z,100044.97
2023-03-15T22:26:36.279Z,100047.19
2023-03-15T22:31:39.048Z,100051.75
2023-03-15T22:36:43.093Z,100045.72
2023-03-15T22:41:45.920Z,100036.59
2023-03-15T22:46:48.840Z,100033.56
2023-03-15T22:51:51.711Z,100012.97
2023-03-15T22:56:54.571Z,100012.94
2023-03-15T23:01:57.468Z,100012.00
2023-03-15T23:07:00.497Z,100014.25
2023-03-15T23:12:03.542Z,100006.53
2023-03-15T23:17:06.627Z,100005.06
2023-03-15T23:22:09.527Z,100001.91
2023-03-15T23:27:13.122Z,99993.47
2023-03-15T23:32:15.991Z,99988.13
2023-03-15T23:37:19.297Z,99975.44
2023-03-15T23:42:26.018Z,99982.22
2023-03-15T23:47:29.275Z,99980.97
2023-03-15T23:52:32.360Z,100004.81
2023-03-15T23:57:35.671Z,100010.41
